Terminal Aerodrome Forecast
Issued by NWS

Home | Current Version | Previous Version | Text Only | Print | Product List | Glossary On
Versions: 1 2 3 4 5 6 7 8 9 10 11 12 13 14 15 16 17 18
000
FTUS42 KFFC 270520
TAFFTY
TAF
KFTY 270520Z 2706/2806 00000KT P6SM SCT150
      TEMPO 2708/2712 3SM BR
     FM271400 VRB03KT P6SM BKN100
     FM280000 00000KT P6SM -RA BKN050 OVC150
     FM280300 00000KT 6SM -RA BR SCT015 OVC030=

USA.gov is the U.S. government's official web portal to all federal, state and local government web resources and services.